createdAt,value
2023-02-01T00:00:37.037Z,4.43
2023-02-01T00:02:42.243Z,4.44
2023-02-01T00:04:47.206Z,4.41
2023-02-01T00:06:54.658Z,4.44
2023-02-01T00:08:59.599Z,4.38
2023-02-01T00:11:05.809Z,4.43
2023-02-01T00:13:10.691Z,4.42
2023-02-01T00:15:16.425Z,4.44
2023-02-01T00:17:21.297Z,4.46
2023-02-01T00:19:26.102Z,4.48
2023-02-01T00:21:31.264Z,4.51
2023-02-01T00:23:39.848Z,4.39
2023-02-01T00:25:44.657Z,4.50
2023-02-01T00:27:52.948Z,4.44
2023-02-01T00:29:58.381Z,4.44
2023-02-01T00:32:03.333Z,4.47
2023-02-01T00:34:09.812Z,4.48
2023-02-01T00:36:15.283Z,4.43
2023-02-01T00:38:20.074Z,4.41
2023-02-01T00:40:27.604Z,4.44
2023-02-01T00:42:32.834Z,4.58
2023-02-01T00:44:37.374Z,4.58
2023-02-01T00:46:42.340Z,4.58
2023-02-01T00:48:47.471Z,4.65
2023-02-01T00:50:52.317Z,4.63
2023-02-01T00:52:57.118Z,4.62
2023-02-01T00:55:01.933Z,4.68
2023-02-01T00:57:09.452Z,4.65
2023-02-01T00:59:15.183Z,4.70
2023-02-01T01:01:22.994Z,4.72
2023-02-01T01:03:27.871Z,4.78
2023-02-01T01:05:32.700Z,4.80
2023-02-01T01:07:37.659Z,4.73
2023-02-01T01:09:42.968Z,4.83
2023-02-01T01:11:49.507Z,4.94
2023-02-01T01:13:58.787Z,4.85
2023-02-01T01:16:06.448Z,4.87
2023-02-01T01:18:12.215Z,4.91
2023-02-01T01:20:17.752Z,4.92
2023-02-01T01:22:22.644Z,4.94
2023-02-01T01:24:27.550Z,4.91
2023-02-01T01:26:33.683Z,4.93
2023-02-01T01:28:38.574Z,4.99
2023-02-01T01:30:46.057Z,4.96
2023-02-01T01:32:51.298Z,4.88
2023-02-01T01:34:56.135Z,4.89
2023-02-01T01:37:01.012Z,4.81
2023-02-01T01:39:05.967Z,4.69
2023-02-01T01:41:11.844Z,4.67
2023-02-01T01:43:18.523Z,4.64
2023-02-01T01:45:27.433Z,4.65
2023-02-01T01:47:39.314Z,4.74
2023-02-01T01:49:44.810Z,4.71
2023-02-01T01:51:54.756Z,4.67
2023-02-01T01:54:06.241Z,4.72
2023-02-01T01:56:11.341Z,4.67
2023-02-01T01:58:21.248Z,4.69
2023-02-01T02:00:26.629Z,4.65
2023-02-01T02:02:36.159Z,4.74
2023-02-01T02:04:42.380Z,4.78
2023-02-01T02:06:51.724Z,4.78
2023-02-01T02:08:56.640Z,4.83
2023-02-01T02:11:04.664Z,4.83
2023-02-01T02:13:09.524Z,4.87
2023-02-01T02:15:16.781Z,4.77
2023-02-01T02:17:34.025Z,4.80
2023-02-01T02:20:14.682Z,4.87
2023-02-01T02:22:45.244Z,4.89
2023-02-01T02:25:09.284Z,4.89
2023-02-01T02:27:31.232Z,4.88
2023-02-01T02:30:06.800Z,4.83
2023-02-01T02:32:48.486Z,4.91
2023-02-01T02:35:00.136Z,4.99
2023-02-01T02:37:11.851Z,5.02
2023-02-01T02:39:25.187Z,5.06
2023-02-01T02:41:48.036Z,4.91
2023-02-01T02:44:14.197Z,4.86
2023-02-01T02:46:37.775Z,4.86
2023-02-01T02:48:51.713Z,4.85
2023-02-01T02:51:17.699Z,4.91
2023-02-01T02:53:40.341Z,4.97
2023-02-01T02:55:47.148Z,4.99
2023-02-01T02:58:04.996Z,5.02
2023-02-01T03:00:26.076Z,5.02
2023-02-01T03:02:44.411Z,5.07
2023-02-01T03:04:49.715Z,5.09
2023-02-01T03:06:58.072Z,5.14
2023-02-01T03:09:08.443Z,5.17
2023-02-01T03:11:15.477Z,5.29
2023-02-01T03:13:27.384Z,5.26
2023-02-01T03:15:39.809Z,5.21
2023-02-01T03:17:47.152Z,5.19
2023-02-01T03:19:55.787Z,5.19
2023-02-01T03:22:07.093Z,5.14
2023-02-01T03:24:18.935Z,5.07
2023-02-01T03:26:25.959Z,5.00
2023-02-01T03:28:34.611Z,5.03
2023-02-01T03:30:43.189Z,4.97
2023-02-01T03:33:03.828Z,4.96
2023-02-01T03:35:11.375Z,4.95
2023-02-01T03:37:25.580Z,5.09
2023-02-01T03:39:36.570Z,5.20
2023-02-01T03:41:45.666Z,5.16
2023-02-01T03:43:57.286Z,5.16
2023-02-01T03:46:06.946Z,5.11
2023-02-01T03:48:14.526Z,5.18
2023-02-01T03:50:21.306Z,5.20
2023-02-01T03:52:33.152Z,5.25
2023-02-01T03:54:42.148Z,5.27
2023-02-01T03:56:50.539Z,5.14
2023-02-01T03:59:02.398Z,5.18
2023-02-01T04:01:12.327Z,5.15
2023-02-01T04:03:18.257Z,5.32
2023-02-01T04:05:24.828Z,5.26
2023-02-01T04:07:42.869Z,5.27
2023-02-01T04:09:47.671Z,5.33
2023-02-01T04:11:52.627Z,5.10
2023-02-01T04:13:57.450Z,5.19
2023-02-01T04:16:02.298Z,5.22
2023-02-01T04:18:07.481Z,5.25
2023-02-01T04:20:12.954Z,5.04
2023-02-01T04:22:17.792Z,5.05
2023-02-01T04:24:25.323Z,5.07
2023-02-01T04:26:30.178Z,4.92
2023-02-01T04:28:35.478Z,4.99
2023-02-01T04:30:40.120Z,4.98
2023-02-01T04:32:45.406Z,4.92
2023-02-01T04:34:50.011Z,4.80
2023-02-01T04:36:54.946Z,4.71
2023-02-01T04:38:59.785Z,4.65
2023-02-01T04:41:07.404Z,4.63
2023-02-01T04:43:12.324Z,4.48
2023-02-01T04:45:17.413Z,4.44
2023-02-01T04:47:22.204Z,4.46
2023-02-01T04:49:27.909Z,4.50
2023-02-01T04:51:32.717Z,4.47
2023-02-01T04:53:37.737Z,4.43
2023-02-01T04:55:42.691Z,4.36
2023-02-01T04:57:52.485Z,4.34
2023-02-01T04:59:57.300Z,4.35
2023-02-01T05:02:02.129Z,4.43
2023-02-01T05:04:07.572Z,4.38
2023-02-01T05:06:12.521Z,4.34
2023-02-01T05:08:17.350Z,4.34
2023-02-01T05:10:22.448Z,4.32
2023-02-01T05:12:39.670Z,4.23
2023-02-01T05:14:47.114Z,4.21
2023-02-01T05:16:52.499Z,4.25
2023-02-01T05:18:57.785Z,4.33
2023-02-01T05:21:02.951Z,4.25
2023-02-01T05:23:07.807Z,4.22
2023-02-01T05:25:13.076Z,4.25
2023-02-01T05:27:17.920Z,4.29
2023-02-01T05:29:22.787Z,4.33
2023-02-01T05:31:30.452Z,4.42
2023-02-01T05:33:35.272Z,4.42
2023-02-01T05:35:40.267Z,4.28
2023-02-01T05:37:45.059Z,4.29
2023-02-01T05:39:49.996Z,4.29
2023-02-01T05:41:54.802Z,4.26
2023-02-01T05:43:59.681Z,4.20
2023-02-01T05:46:04.693Z,4.20
2023-02-01T05:48:12.191Z,4.18
2023-02-01T05:50:17.695Z,4.20
2023-02-01T05:52:22.530Z,4.08
2023-02-01T05:54:27.498Z,4.04
2023-02-01T05:56:32.493Z,3.94
2023-02-01T05:58:37.403Z,3.92
2023-02-01T06:00:42.337Z,3.69
2023-02-01T06:02:47.238Z,3.53
2023-02-01T06:04:54.821Z,3.50
2023-02-01T06:06:59.580Z,3.55
2023-02-01T06:09:04.638Z,3.53
2023-02-01T06:11:10.961Z,3.58
2023-02-01T06:13:18.429Z,3.64
2023-02-01T06:15:23.243Z,3.64
2023-02-01T06:17:30.847Z,3.70
2023-02-01T06:19:35.707Z,3.66
2023-02-01T06:21:43.614Z,3.67
2023-02-01T06:23:48.510Z,3.74
2023-02-01T06:25:54.157Z,3.80
2023-02-01T06:27:58.950Z,3.80
2023-02-01T06:30:03.989Z,3.80
2023-02-01T06:32:09.272Z,3.78
2023-02-01T06:34:14.188Z,3.74
2023-02-01T06:36:21.831Z,3.72
2023-02-01T06:38:30.057Z,3.77
2023-02-01T06:40:34.867Z,3.71
2023-02-01T06:42:39.693Z,3.78
2023-02-01T06:44:44.647Z,3.79
2023-02-01T06:46:49.595Z,3.71
2023-02-01T06:48:54.481Z,3.80
2023-02-01T06:50:59.443Z,3.83
2023-02-01T06:53:04.305Z,3.82
2023-02-01T06:55:12.740Z,3.92
2023-02-01T06:57:18.346Z,3.87
2023-02-01T06:59:23.287Z,3.84
2023-02-01T07:01:28.240Z,3.92
2023-02-01T07:03:33.148Z,3.95
2023-02-01T07:05:38.006Z,3.98
2023-02-01T07:07:43.030Z,4.03
2023-02-01T07:09:47.820Z,4.07
2023-02-01T07:11:55.267Z,4.08
2023-02-01T07:14:00.357Z,3.96
2023-02-01T07:16:06.740Z,4.00
2023-02-01T07:18:11.612Z,4.08
2023-02-01T07:20:16.577Z,4.14
2023-02-01T07:22:21.463Z,4.17
2023-02-01T07:24:26.413Z,4.11
2023-02-01T07:26:31.821Z,4.16
2023-02-01T07:28:40.007Z,4.17
2023-02-01T07:30:45.191Z,4.23
2023-02-01T07:32:50.195Z,4.16
2023-02-01T07:34:55.159Z,4.15
2023-02-01T07:37:00.298Z,4.16
2023-02-01T07:39:05.116Z,4.26
2023-02-01T07:41:10.777Z,4.22
2023-02-01T07:43:15.596Z,4.28
2023-02-01T07:45:23.185Z,4.29
2023-02-01T07:47:28.031Z,4.24
2023-02-01T07:49:32.945Z,4.24
2023-02-01T07:51:37.790Z,4.27
2023-02-01T07:53:42.858Z,4.23
2023-02-01T07:55:49.040Z,4.19
2023-02-01T07:57:53.941Z,4.13
2023-02-01T08:00:11.164Z,4.17
2023-02-01T08:02:22.674Z,4.17
2023-02-01T08:04:27.551Z,4.10
2023-02-01T08:06:34.984Z,4.09
2023-02-01T08:08:39.844Z,4.09
2023-02-01T08:10:44.825Z,4.06
2023-02-01T08:12:49.976Z,4.09
2023-02-01T08:14:54.925Z,4.13
2023-02-01T08:16:59.720Z,4.16
2023-02-01T08:19:07.322Z,4.14
2023-02-01T08:21:14.372Z,4.19
2023-02-01T08:23:19.294Z,4.23
2023-02-01T08:25:24.152Z,4.19
2023-02-01T08:27:29.023Z,4.22
2023-02-01T08:29:33.843Z,4.26
2023-02-01T08:31:41.920Z,4.37
2023-02-01T08:33:48.181Z,4.41
2023-02-01T08:35:55.648Z,4.36
2023-02-01T08:38:00.423Z,4.38
2023-02-01T08:40:05.460Z,4.40
2023-02-01T08:42:22.687Z,4.44
2023-02-01T08:44:27.499Z,4.46
2023-02-01T08:46:32.660Z,4.42
2023-02-01T08:48:37.920Z,4.41
2023-02-01T08:50:42.728Z,4.45
2023-02-01T08:52:50.363Z,4.57
2023-02-01T08:54:55.242Z,4.64
2023-02-01T08:57:00.248Z,4.69
2023-02-01T08:59:05.297Z,4.81
2023-02-01T09:01:12.798Z,4.85
2023-02-01T09:03:17.994Z,4.87
2023-02-01T09:05:24.266Z,4.88
2023-02-01T09:07:29.064Z,4.78
2023-02-01T09:09:36.549Z,4.74
2023-02-01T09:11:41.519Z,4.74
2023-02-01T09:13:47.651Z,4.72
2023-02-01T09:15:54.894Z,4.75
2023-02-01T09:17:59.876Z,4.62
2023-02-01T09:20:05.198Z,4.63
2023-02-01T09:22:10.053Z,4.62
2023-02-01T09:24:15.223Z,4.61
2023-02-01T09:26:31.400Z,4.42
2023-02-01T09:28:37.672Z,4.18
2023-02-01T09:30:42.679Z,3.99
2023-02-01T09:32:47.608Z,3.75
2023-02-01T09:34:52.703Z,3.56
2023-02-01T09:36:57.398Z,3.46
2023-02-01T09:39:02.831Z,3.37
2023-02-01T09:41:25.921Z,3.46
2023-02-01T09:43:45.668Z,3.52
2023-02-01T09:46:01.285Z,3.61
2023-02-01T09:48:07.716Z,3.60
2023-02-01T09:50:18.017Z,3.70
2023-02-01T09:52:30.567Z,3.93
2023-02-01T09:54:44.577Z,4.11
2023-02-01T09:56:53.664Z,4.23
2023-02-01T09:59:13.100Z,4.38
2023-02-01T10:01:23.544Z,4.50
2023-02-01T10:03:32.418Z,4.65
2023-02-01T10:05:52.523Z,4.69
2023-02-01T10:08:07.758Z,4.74
2023-02-01T10:10:19.381Z,4.74
2023-02-01T10:12:56.930Z,4.85
2023-02-01T10:15:18.252Z,4.86
2023-02-01T10:17:33.610Z,4.95
2023-02-01T10:19:48.596Z,4.94
2023-02-01T10:22:00.834Z,5.01
2023-02-01T10:24:21.599Z,5.02
2023-02-01T10:26:27.951Z,5.03
2023-02-01T10:28:37.995Z,5.07
2023-02-01T10:30:49.255Z,5.07
2023-02-01T10:33:00.440Z,5.18
2023-02-01T10:35:12.607Z,5.06
2023-02-01T10:37:28.697Z,5.14
2023-02-01T10:39:33.559Z,5.11
2023-02-01T10:41:40.544Z,5.14
2023-02-01T10:43:47.369Z,5.20
2023-02-01T10:45:55.378Z,5.11
2023-02-01T10:48:02.372Z,5.10
2023-02-01T10:50:19.696Z,5.11
2023-02-01T10:52:35.413Z,5.07
2023-02-01T10:54:41.863Z,4.99
2023-02-01T10:56:48.594Z,4.98
2023-02-01T10:58:54.207Z,5.03
2023-02-01T11:01:05.050Z,5.06
2023-02-01T11:03:38.750Z,5.02
2023-02-01T11:05:48.695Z,5.04
2023-02-01T11:07:57.276Z,4.99
2023-02-01T11:10:03.062Z,4.98
2023-02-01T11:12:08.695Z,4.96
2023-02-01T11:14:19.217Z,5.06
2023-02-01T11:16:33.572Z,5.03
2023-02-01T11:18:41.029Z,5.09
2023-02-01T11:20:46.847Z,5.15
2023-02-01T11:22:56.788Z,5.13
2023-02-01T11:25:05.184Z,5.22
2023-02-01T11:27:26.653Z,5.17
2023-02-01T11:29:37.441Z,5.19
2023-02-01T11:31:45.760Z,5.17
2023-02-01T11:33:55.318Z,5.24
2023-02-01T11:36:01.581Z,5.24
2023-02-01T11:38:18.402Z,5.26
2023-02-01T11:40:37.840Z,5.30
2023-02-01T11:42:58.224Z,5.32
2023-02-01T11:45:23.252Z,5.38
2023-02-01T11:47:42.066Z,5.43
2023-02-01T11:49:46.941Z,5.48
2023-02-01T11:52:03.845Z,5.51
2023-02-01T11:54:22.501Z,5.47
2023-02-01T11:56:32.182Z,5.44
2023-02-01T11:59:01.887Z,5.39
2023-02-01T12:01:24.124Z,5.28
2023-02-01T12:04:01.574Z,5.21
2023-02-01T12:06:16.258Z,5.26
2023-02-01T12:08:31.874Z,5.29
2023-02-01T12:10:47.407Z,5.39
2023-02-01T12:13:01.083Z,5.49
2023-02-01T12:15:48.347Z,5.48
2023-02-01T12:18:16.120Z,5.42
2023-02-01T12:20:40.077Z,5.30
2023-02-01T12:23:00.964Z,5.35
2023-02-01T12:25:25.490Z,5.33
2023-02-01T12:27:47.122Z,5.33
2023-02-01T12:30:01.020Z,5.50
2023-02-01T12:32:19.568Z,5.55
2023-02-01T12:34:50.256Z,5.47
2023-02-01T12:37:03.825Z,5.51
2023-02-01T12:39:21.499Z,5.48
2023-02-01T12:41:43.022Z,5.55
2023-02-01T12:43:53.147Z,5.56
2023-02-01T12:46:02.739Z,5.52
2023-02-01T12:48:26.114Z,5.49
2023-02-01T12:50:34.727Z,5.54
2023-02-01T12:52:44.879Z,5.48
2023-02-01T12:54:57.675Z,5.63
2023-02-01T12:57:06.629Z,5.67
2023-02-01T12:59:23.156Z,5.59
2023-02-01T13:01:35.011Z,5.58
2023-02-01T13:03:45.140Z,5.56
2023-02-01T13:05:56.516Z,5.53
2023-02-01T13:08:04.168Z,5.43
2023-02-01T13:10:20.091Z,5.37
2023-02-01T13:12:30.056Z,5.32
2023-02-01T13:14:40.807Z,5.32
2023-02-01T13:16:48.615Z,5.28
2023-02-01T13:18:56.013Z,5.28
2023-02-01T13:21:08.099Z,5.30
2023-02-01T13:23:19.950Z,5.27
2023-02-01T13:25:34.379Z,5.17
2023-02-01T13:27:39.328Z,5.10
2023-02-01T13:29:50.531Z,5.12
2023-02-01T13:33:18.251Z,5.12
2023-02-01T13:35:21.969Z,5.18
2023-02-01T13:37:52.670Z,5.26
2023-02-01T13:40:29.885Z,5.34
2023-02-01T13:42:45.405Z,5.35
2023-02-01T13:44:53.801Z,5.33
2023-02-01T13:47:02.630Z,5.36
2023-02-01T13:49:09.038Z,5.42
2023-02-01T13:51:13.984Z,5.45
2023-02-01T13:53:24.731Z,5.57
2023-02-01T13:55:34.722Z,5.64
2023-02-01T13:57:45.712Z,5.68
2023-02-01T13:59:55.956Z,5.68
2023-02-01T14:02:35.856Z,5.64
2023-02-01T14:04:51.927Z,5.64
2023-02-01T14:06:59.325Z,5.63
2023-02-01T14:09:34.525Z,5.64
2023-02-01T14:11:42.857Z,5.70
2023-02-01T14:13:50.287Z,5.71
2023-02-01T14:16:17.639Z,5.81
2023-02-01T14:18:52.634Z,5.79
2023-02-01T14:21:24.130Z,5.83
2023-02-01T14:23:34.385Z,5.87
2023-02-01T14:25:39.383Z,5.84
2023-02-01T14:27:44.757Z,5.87
2023-02-01T14:29:59.167Z,5.81
2023-02-01T14:32:11.902Z,5.79
2023-02-01T14:34:22.075Z,5.81
2023-02-01T14:36:27.229Z,5.72
2023-02-01T14:38:33.333Z,5.68
2023-02-01T14:40:38.548Z,5.62
2023-02-01T14:42:47.924Z,5.65
2023-02-01T14:44:59.356Z,5.81
2023-02-01T14:47:30.652Z,5.86
2023-02-01T14:49:38.438Z,5.90
2023-02-01T14:51:44.591Z,5.67
2023-02-01T14:53:50.297Z,5.63
2023-02-01T14:55:59.901Z,5.61
2023-02-01T14:58:08.825Z,5.53
2023-02-01T15:00:27.713Z,5.46
2023-02-01T15:02:35.011Z,5.49
2023-02-01T15:04:46.133Z,5.49
2023-02-01T15:06:55.254Z,5.59
2023-02-01T15:09:03.059Z,5.47
2023-02-01T15:11:15.282Z,5.54
2023-02-01T15:13:26.059Z,5.64
2023-02-01T15:15:37.587Z,5.56
2023-02-01T15:17:42.800Z,5.51
2023-02-01T15:19:57.162Z,5.60
2023-02-01T15:22:02.902Z,5.51
2023-02-01T15:24:18.035Z,5.47
2023-02-01T15:26:30.031Z,5.41
2023-02-01T15:28:34.963Z,5.42
2023-02-01T15:30:43.103Z,5.43
2023-02-01T15:32:47.968Z,5.38
2023-02-01T15:34:53.901Z,5.37
2023-02-01T15:37:08.700Z,5.44
2023-02-01T15:39:33.171Z,5.55
2023-02-01T15:41:38.522Z,5.48
2023-02-01T15:43:46.316Z,5.42
2023-02-01T15:45:56.469Z,5.33
2023-02-01T15:48:02.544Z,5.31
2023-02-01T15:50:08.608Z,5.30
2023-02-01T15:52:25.182Z,5.28
2023-02-01T15:54:33.934Z,5.20
2023-02-01T15:56:41.038Z,5.17
2023-02-01T15:58:49.947Z,5.14
2023-02-01T16:00:59.824Z,5.13
2023-02-01T16:03:07.287Z,5.11
2023-02-01T16:05:34.469Z,5.08
2023-02-01T16:07:40.957Z,5.05
2023-02-01T16:09:56.563Z,5.04
2023-02-01T16:12:03.296Z,5.07
2023-02-01T16:14:08.177Z,5.08
2023-02-01T16:16:15.655Z,5.05
2023-02-01T16:18:20.800Z,5.08
2023-02-01T16:20:25.888Z,5.07
2023-02-01T16:22:30.492Z,5.08
2023-02-01T16:24:35.393Z,5.10
2023-02-01T16:26:40.333Z,5.16
2023-02-01T16:28:45.120Z,5.18
2023-02-01T16:30:52.310Z,5.21
2023-02-01T16:33:03.647Z,5.30
2023-02-01T16:35:09.871Z,5.23
2023-02-01T16:37:16.960Z,5.20
2023-02-01T16:39:22.851Z,5.20
2023-02-01T16:41:29.058Z,5.21
2023-02-01T16:43:34.039Z,5.26
2023-02-01T16:45:41.334Z,5.27
2023-02-01T16:47:53.510Z,5.30
2023-02-01T16:50:23.810Z,5.26
2023-02-01T16:52:30.480Z,5.29
2023-02-01T16:54:35.372Z,5.35
2023-02-01T16:56:43.420Z,5.37
2023-02-01T16:58:48.607Z,5.29
2023-02-01T17:00:53.519Z,5.25
2023-02-01T17:02:58.415Z,5.22
2023-02-01T17:05:03.378Z,5.21
2023-02-01T17:07:14.799Z,5.21
2023-02-01T17:09:20.417Z,5.30
2023-02-01T17:11:25.621Z,5.31
2023-02-01T17:13:30.815Z,5.34
2023-02-01T17:15:37.813Z,5.27
2023-02-01T17:17:44.648Z,5.29
2023-02-01T17:19:53.109Z,5.33
2023-02-01T17:22:00.094Z,5.38
2023-02-01T17:24:08.012Z,5.36
2023-02-01T17:26:13.437Z,5.33
2023-02-01T17:28:18.259Z,5.36
2023-02-01T17:30:23.264Z,5.33
2023-02-01T17:32:29.186Z,5.31
2023-02-01T17:34:34.512Z,5.37
2023-02-01T17:36:40.080Z,5.37
2023-02-01T17:38:50.928Z,5.32
2023-02-01T17:41:01.452Z,5.30
2023-02-01T17:43:06.466Z,5.28
2023-02-01T17:45:25.297Z,5.33
2023-02-01T17:47:30.474Z,5.39
2023-02-01T17:49:36.288Z,5.42
2023-02-01T17:51:41.806Z,5.38
2023-02-01T17:53:47.284Z,5.37
2023-02-01T17:55:52.267Z,5.37
2023-02-01T17:57:59.724Z,5.39
2023-02-01T18:00:04.836Z,5.44
2023-02-01T18:02:21.509Z,5.41
2023-02-01T18:04:26.415Z,5.40
2023-02-01T18:06:31.413Z,5.39
2023-02-01T18:08:36.364Z,5.37
2023-02-01T18:10:41.174Z,5.40
2023-02-01T18:12:46.201Z,5.38
2023-02-01T18:14:53.667Z,5.42
2023-02-01T18:16:58.787Z,5.42
2023-02-01T18:19:05.261Z,5.39
2023-02-01T18:21:10.180Z,5.38
2023-02-01T18:23:18.992Z,5.42
2023-02-01T18:25:26.991Z,5.44
2023-02-01T18:27:31.911Z,5.46
2023-02-01T18:29:36.782Z,5.47
2023-02-01T18:31:49.616Z,5.47
2023-02-01T18:33:56.590Z,5.47
2023-02-01T18:36:01.462Z,5.43
2023-02-01T18:38:06.333Z,5.42
2023-02-01T18:40:15.967Z,5.45
2023-02-01T18:42:20.790Z,5.48
2023-02-01T18:44:26.547Z,5.46
2023-02-01T18:46:31.448Z,5.45
2023-02-01T18:48:38.951Z,5.47
2023-02-01T18:50:45.916Z,5.50
2023-02-01T18:52:50.865Z,5.49
2023-02-01T18:55:00.042Z,5.42
2023-02-01T18:57:06.761Z,5.45
2023-02-01T18:59:11.953Z,5.44
2023-02-01T19:01:18.980Z,5.41
2023-02-01T19:03:26.792Z,5.36
2023-02-01T19:05:34.257Z,5.39
2023-02-01T19:07:39.171Z,5.38
2023-02-01T19:09:43.771Z,5.40
2023-02-01T19:11:48.390Z,5.35
2023-02-01T19:13:53.241Z,5.37
2023-02-01T19:15:57.918Z,5.29
2023-02-01T19:18:02.532Z,5.22
2023-02-01T19:20:07.641Z,5.18
2023-02-01T19:22:14.815Z,5.16
2023-02-01T19:24:19.447Z,5.18
2023-02-01T19:26:24.071Z,5.15
2023-02-01T19:28:28.819Z,5.17
2023-02-01T19:30:33.372Z,5.13
2023-02-01T19:32:39.116Z,5.11
2023-02-01T19:34:43.674Z,5.19
2023-02-01T19:36:49.024Z,5.16
2023-02-01T19:38:56.250Z,5.18
2023-02-01T19:41:01.152Z,5.18
2023-02-01T19:43:05.736Z,5.21
2023-02-01T19:45:11.475Z,5.21
2023-02-01T19:47:16.055Z,5.23
2023-02-01T19:49:20.735Z,5.22
2023-02-01T19:51:25.336Z,5.17
2023-02-01T19:53:30.319Z,5.20
2023-02-01T19:55:37.604Z,5.23
2023-02-01T19:57:43.910Z,5.25
2023-02-01T19:59:48.448Z,5.27
2023-02-01T20:01:52.234Z,5.29
2023-02-01T20:04:01.766Z,5.30
2023-02-01T20:06:07.473Z,5.28
2023-02-01T20:08:12.120Z,5.22
2023-02-01T20:10:16.798Z,5.27
2023-02-01T20:12:23.962Z,5.27
2023-02-01T20:14:29.735Z,5.29
2023-02-01T20:16:34.340Z,5.29
2023-02-01T20:18:39.066Z,5.31
2023-02-01T20:20:44.145Z,5.23
2023-02-01T20:22:48.715Z,5.14
2023-02-01T20:24:53.327Z,5.14
2023-02-01T20:26:59.305Z,5.08
2023-02-01T20:29:06.625Z,5.15
2023-02-01T20:31:12.082Z,5.11
2023-02-01T20:33:16.998Z,5.10
2023-02-01T20:35:22.504Z,5.11
2023-02-01T20:37:27.444Z,5.09
2023-02-01T20:39:32.328Z,5.07
2023-02-01T20:41:36.959Z,5.11
2023-02-01T20:43:41.726Z,5.12
2023-02-01T20:45:52.335Z,5.16
2023-02-01T20:47:56.915Z,5.16
2023-02-01T20:50:01.459Z,5.21
2023-02-01T20:52:06.031Z,5.25
2023-02-01T20:54:10.766Z,5.25
2023-02-01T20:56:15.625Z,5.24
2023-02-01T20:58:20.289Z,5.27
2023-02-01T21:00:25.289Z,5.24
2023-02-01T21:02:32.513Z,5.30
2023-02-01T21:04:37.470Z,5.31
2023-02-01T21:06:42.058Z,5.28
2023-02-01T21:08:46.638Z,5.25
2023-02-01T21:10:58.245Z,5.25
2023-02-01T21:13:05.362Z,5.22
2023-02-01T21:15:10.876Z,5.16
2023-02-01T21:17:15.635Z,5.12
2023-02-01T21:19:25.284Z,5.09
2023-02-01T21:21:32.178Z,5.02
2023-02-01T21:23:45.133Z,5.01
2023-02-01T21:25:50.099Z,4.98
2023-02-01T21:27:54.820Z,4.99
2023-02-01T21:29:59.364Z,5.01
2023-02-01T21:32:04.124Z,5.03
2023-02-01T21:34:09.584Z,4.96
2023-02-01T21:36:19.159Z,4.97
2023-02-01T21:38:23.779Z,4.99
2023-02-01T21:40:28.343Z,4.97
2023-02-01T21:42:31.073Z,4.95
2023-02-01T21:44:35.655Z,4.91
2023-02-01T21:46:40.212Z,4.91
2023-02-01T21:49:04.405Z,4.96
2023-02-01T21:51:09.915Z,5.02
2023-02-01T21:53:17.277Z,5.01
2023-02-01T21:55:22.123Z,4.93
2023-02-01T21:57:26.838Z,4.82
2023-02-01T21:59:31.431Z,4.70
2023-02-01T22:01:36.054Z,4.68
2023-02-01T22:03:40.613Z,4.66
2023-02-01T22:05:45.313Z,4.68
2023-02-01T22:07:49.824Z,4.74
2023-02-01T22:09:56.981Z,4.66
2023-02-01T22:12:01.679Z,4.70
2023-02-01T22:14:06.294Z,4.68
2023-02-01T22:16:11.217Z,4.70
2023-02-01T22:18:15.804Z,4.74
2023-02-01T22:20:20.886Z,4.76
2023-02-01T22:22:25.469Z,4.79
2023-02-01T22:24:30.145Z,4.81
2023-02-01T22:26:37.362Z,4.86
2023-02-01T22:28:43.789Z,4.87
2023-02-01T22:30:48.628Z,4.87
2023-02-01T22:32:53.214Z,4.93
2023-02-01T22:34:57.746Z,4.93
2023-02-01T22:37:03.233Z,4.95
2023-02-01T22:39:08.060Z,4.96
2023-02-01T22:41:12.847Z,5.00
2023-02-01T22:43:19.996Z,5.00
2023-02-01T22:45:24.865Z,5.04
2023-02-01T22:47:29.717Z,5.04
2023-02-01T22:49:34.359Z,5.05
2023-02-01T22:51:38.906Z,5.12
2023-02-01T22:53:43.610Z,5.13
2023-02-01T22:55:48.315Z,5.13
2023-02-01T22:57:52.943Z,5.12
2023-02-01T23:00:00.124Z,5.15
2023-02-01T23:02:04.804Z,5.17
2023-02-01T23:04:10.474Z,5.19
2023-02-01T23:06:18.509Z,5.18
2023-02-01T23:08:23.076Z,5.14
2023-02-01T23:10:27.615Z,5.15
2023-02-01T23:12:32.182Z,5.21
2023-02-01T23:14:56.780Z,5.28
2023-02-01T23:17:03.915Z,5.32
2023-02-01T23:19:08.836Z,5.37
2023-02-01T23:21:15.455Z,5.38
2023-02-01T23:23:20.095Z,5.41
2023-02-01T23:25:25.024Z,5.49
2023-02-01T23:27:29.916Z,5.48
2023-02-01T23:29:35.299Z,5.49
2023-02-01T23:31:39.957Z,5.53
2023-02-01T23:33:49.516Z,5.52
2023-02-01T23:35:57.698Z,5.56
2023-02-01T23:38:02.262Z,5.55
2023-02-01T23:40:07.260Z,5.54
2023-02-01T23:42:11.834Z,5.49
2023-02-01T23:44:13.838Z,5.44
2023-02-01T23:46:21.613Z,5.43
2023-02-01T23:48:26.180Z,5.40
2023-02-01T23:50:33.328Z,5.40
2023-02-01T23:52:38.211Z,5.43
2023-02-01T23:54:42.812Z,5.45
2023-02-01T23:56:48.004Z,5.49
2023-02-01T23:58:53.434Z,5.45
